sensor_id;sensor_type;location;lat;lon;timestamp;P1;durP1;ratioP1;P2;durP2;ratioP2
13685;SDS011;6915;48.296;8.874;2023-10-08T00:02:24;7.07;;;4.07;;
13685;SDS011;6915;48.296;8.874;2023-10-08T00:04:55;11.30;;;4.20;;
13685;SDS011;6915;48.296;8.874;2023-10-08T00:08:26;10.03;;;4.00;;
13685;SDS011;6915;48.296;8.874;2023-10-08T00:11:07;10.50;;;4.20;;
13685;SDS011;6915;48.296;8.874;2023-10-08T00:13:49;5.63;;;3.60;;
13685;SDS011;6915;48.296;8.874;2023-10-08T00:16:21;8.47;;;4.47;;
13685;SDS011;6915;48.296;8.874;2023-10-08T00:18:53;11.67;;;4.00;;
13685;SDS011;6915;48.296;8.874;2023-10-08T00:21:33;7.73;;;4.10;;
13685;SDS011;6915;48.296;8.874;2023-10-08T00:24:07;10.93;;;4.30;;
13685;SDS011;6915;48.296;8.874;2023-10-08T00:26:40;9.87;;;4.20;;
13685;SDS011;6915;48.296;8.874;2023-10-08T00:29:19;9.57;;;3.97;;
13685;SDS011;6915;48.296;8.874;2023-10-08T00:31:50;6.80;;;3.63;;
13685;SDS011;6915;48.296;8.874;2023-10-08T00:34:24;7.60;;;3.70;;
13685;SDS011;6915;48.296;8.874;2023-10-08T00:37:13;7.90;;;3.63;;
13685;SDS011;6915;48.296;8.874;2023-10-08T00:39:47;7.13;;;3.53;;
13685;SDS011;6915;48.296;8.874;2023-10-08T00:42:36;9.27;;;3.80;;
13685;SDS011;6915;48.296;8.874;2023-10-08T00:45:17;8.70;;;4.00;;
13685;SDS011;6915;48.296;8.874;2023-10-08T00:47:44;10.77;;;3.90;;
13685;SDS011;6915;48.296;8.874;2023-10-08T00:50:12;11.57;;;4.23;;
13685;SDS011;6915;48.296;8.874;2023-10-08T00:52:45;8.30;;;4.10;;
13685;SDS011;6915;48.296;8.874;2023-10-08T00:55:34;9.50;;;3.73;;
13685;SDS011;6915;48.296;8.874;2023-10-08T00:58:11;7.20;;;3.57;;
13685;SDS011;6915;48.296;8.874;2023-10-08T01:00:50;6.27;;;3.30;;
13685;SDS011;6915;48.296;8.874;2023-10-08T01:03:24;13.80;;;3.93;;
13685;SDS011;6915;48.296;8.874;2023-10-08T01:05:52;10.03;;;3.80;;
13685;SDS011;6915;48.296;8.874;2023-10-08T01:08:20;10.53;;;3.80;;
13685;SDS011;6915;48.296;8.874;2023-10-08T01:11:15;13.30;;;4.13;;
13685;SDS011;6915;48.296;8.874;2023-10-08T01:13:44;13.23;;;4.00;;
13685;SDS011;6915;48.296;8.874;2023-10-08T01:16:13;12.63;;;4.00;;
13685;SDS011;6915;48.296;8.874;2023-10-08T01:18:43;9.10;;;3.47;;
13685;SDS011;6915;48.296;8.874;2023-10-08T01:21:21;9.77;;;3.67;;
13685;SDS011;6915;48.296;8.874;2023-10-08T01:24:04;11.00;;;3.73;;
13685;SDS011;6915;48.296;8.874;2023-10-08T01:26:32;7.93;;;3.20;;
13685;SDS011;6915;48.296;8.874;2023-10-08T01:29:04;8.83;;;3.80;;
13685;SDS011;6915;48.296;8.874;2023-10-08T01:31:34;10.53;;;3.70;;
13685;SDS011;6915;48.296;8.874;2023-10-08T01:34:01;10.47;;;3.57;;
13685;SDS011;6915;48.296;8.874;2023-10-08T01:36:29;7.47;;;3.60;;
13685;SDS011;6915;48.296;8.874;2023-10-08T01:38:57;10.73;;;3.80;;
13685;SDS011;6915;48.296;8.874;2023-10-08T01:41:28;11.07;;;3.40;;
13685;SDS011;6915;48.296;8.874;2023-10-08T01:43:55;8.17;;;3.30;;
13685;SDS011;6915;48.296;8.874;2023-10-08T01:46:24;9.00;;;3.30;;
13685;SDS011;6915;48.296;8.874;2023-10-08T01:48:52;7.43;;;3.40;;
13685;SDS011;6915;48.296;8.874;2023-10-08T01:51:25;6.83;;;3.03;;
13685;SDS011;6915;48.296;8.874;2023-10-08T01:54:02;6.47;;;3.20;;
13685;SDS011;6915;48.296;8.874;2023-10-08T01:56:36;10.50;;;3.40;;
13685;SDS011;6915;48.296;8.874;2023-10-08T01:59:06;11.33;;;3.70;;
13685;SDS011;6915;48.296;8.874;2023-10-08T02:01:34;10.40;;;3.67;;
13685;SDS011;6915;48.296;8.874;2023-10-08T02:04:02;9.10;;;3.47;;
13685;SDS011;6915;48.296;8.874;2023-10-08T02:06:31;11.30;;;3.60;;
13685;SDS011;6915;48.296;8.874;2023-10-08T02:09:04;11.20;;;3.70;;
13685;SDS011;6915;48.296;8.874;2023-10-08T02:11:41;9.07;;;3.33;;
13685;SDS011;6915;48.296;8.874;2023-10-08T02:14:09;9.03;;;3.00;;
13685;SDS011;6915;48.296;8.874;2023-10-08T02:16:38;7.37;;;3.43;;
13685;SDS011;6915;48.296;8.874;2023-10-08T02:19:05;8.77;;;3.40;;
13685;SDS011;6915;48.296;8.874;2023-10-08T02:21:35;9.73;;;3.37;;
13685;SDS011;6915;48.296;8.874;2023-10-08T02:24:05;7.33;;;3.03;;
13685;SDS011;6915;48.296;8.874;2023-10-08T02:26:33;11.00;;;3.50;;
13685;SDS011;6915;48.296;8.874;2023-10-08T02:29:02;8.27;;;3.50;;
13685;SDS011;6915;48.296;8.874;2023-10-08T02:31:35;10.90;;;3.50;;
13685;SDS011;6915;48.296;8.874;2023-10-08T02:34:02;6.77;;;3.17;;
13685;SDS011;6915;48.296;8.874;2023-10-08T02:36:32;8.83;;;3.37;;
13685;SDS011;6915;48.296;8.874;2023-10-08T02:39:01;10.13;;;3.60;;
13685;SDS011;6915;48.296;8.874;2023-10-08T02:41:31;8.83;;;3.70;;
13685;SDS011;6915;48.296;8.874;2023-10-08T02:43:58;10.50;;;3.37;;
13685;SDS011;6915;48.296;8.874;2023-10-08T02:46:32;8.23;;;3.67;;
13685;SDS011;6915;48.296;8.874;2023-10-08T02:48:59;12.60;;;3.60;;
13685;SDS011;6915;48.296;8.874;2023-10-08T02:51:29;8.33;;;3.60;;
13685;SDS011;6915;48.296;8.874;2023-10-08T02:53:55;9.37;;;3.50;;
13685;SDS011;6915;48.296;8.874;2023-10-08T02:56:22;10.53;;;3.60;;
13685;SDS011;6915;48.296;8.874;2023-10-08T02:58:49;9.50;;;3.30;;
13685;SDS011;6915;48.296;8.874;2023-10-08T03:01:16;8.17;;;3.37;;
13685;SDS011;6915;48.296;8.874;2023-10-08T03:03:44;9.80;;;3.20;;
13685;SDS011;6915;48.296;8.874;2023-10-08T03:06:12;10.37;;;3.33;;
13685;SDS011;6915;48.296;8.874;2023-10-08T03:08:40;9.57;;;3.20;;
13685;SDS011;6915;48.296;8.874;2023-10-08T03:11:08;6.77;;;3.40;;
13685;SDS011;6915;48.296;8.874;2023-10-08T03:13:42;10.63;;;3.37;;
13685;SDS011;6915;48.296;8.874;2023-10-08T03:16:16;10.83;;;3.47;;
13685;SDS011;6915;48.296;8.874;2023-10-08T03:18:53;12.77;;;4.03;;
13685;SDS011;6915;48.296;8.874;2023-10-08T03:21:22;9.20;;;3.60;;
13685;SDS011;6915;48.296;8.874;2023-10-08T03:24:09;7.77;;;3.10;;
13685;SDS011;6915;48.296;8.874;2023-10-08T03:26:49;9.03;;;3.33;;
13685;SDS011;6915;48.296;8.874;2023-10-08T03:29:20;8.40;;;3.63;;
13685;SDS011;6915;48.296;8.874;2023-10-08T03:31:55;9.40;;;3.37;;
13685;SDS011;6915;48.296;8.874;2023-10-08T03:34:24;12.80;;;3.40;;
13685;SDS011;6915;48.296;8.874;2023-10-08T03:36:52;9.53;;;3.40;;
13685;SDS011;6915;48.296;8.874;2023-10-08T03:39:25;10.43;;;3.40;;
13685;SDS011;6915;48.296;8.874;2023-10-08T03:42:11;9.67;;;3.13;;
13685;SDS011;6915;48.296;8.874;2023-10-08T03:44:45;15.77;;;3.90;;
13685;SDS011;6915;48.296;8.874;2023-10-08T03:47:16;7.73;;;3.40;;
13685;SDS011;6915;48.296;8.874;2023-10-08T03:49:45;8.23;;;3.17;;
13685;SDS011;6915;48.296;8.874;2023-10-08T03:52:21;7.17;;;3.00;;
13685;SDS011;6915;48.296;8.874;2023-10-08T03:54:53;8.47;;;3.00;;
13685;SDS011;6915;48.296;8.874;2023-10-08T03:57:30;11.73;;;3.70;;
13685;SDS011;6915;48.296;8.874;2023-10-08T04:00:07;7.10;;;3.23;;
13685;SDS011;6915;48.296;8.874;2023-10-08T04:02:39;7.80;;;3.47;;
13685;SDS011;6915;48.296;8.874;2023-10-08T04:05:13;7.37;;;2.90;;
13685;SDS011;6915;48.296;8.874;2023-10-08T04:08:10;9.37;;;3.03;;
13685;SDS011;6915;48.296;8.874;2023-10-08T04:10:49;8.47;;;2.97;;
13685;SDS011;6915;48.296;8.874;2023-10-08T04:13:30;11.70;;;3.40;;
13685;SDS011;6915;48.296;8.874;2023-10-08T04:15:57;6.70;;;3.20;;
13685;SDS011;6915;48.296;8.874;2023-10-08T04:18:24;9.77;;;3.20;;
13685;SDS011;6915;48.296;8.874;2023-10-08T04:20:53;10.63;;;3.43;;
13685;SDS011;6915;48.296;8.874;2023-10-08T04:23:33;8.57;;;2.87;;
13685;SDS011;6915;48.296;8.874;2023-10-08T04:26:03;9.97;;;3.00;;
13685;SDS011;6915;48.296;8.874;2023-10-08T04:28:32;9.13;;;3.00;;
13685;SDS011;6915;48.296;8.874;2023-10-08T04:31:00;14.67;;;3.50;;
13685;SDS011;6915;48.296;8.874;2023-10-08T04:33:41;12.13;;;3.13;;
13685;SDS011;6915;48.296;8.874;2023-10-08T04:36:09;12.63;;;3.23;;
13685;SDS011;6915;48.296;8.874;2023-10-08T04:38:43;12.00;;;3.33;;
13685;SDS011;6915;48.296;8.874;2023-10-08T04:41:13;14.17;;;3.67;;
13685;SDS011;6915;48.296;8.874;2023-10-08T04:43:44;8.93;;;3.30;;
13685;SDS011;6915;48.296;8.874;2023-10-08T04:46:14;10.30;;;3.70;;
13685;SDS011;6915;48.296;8.874;2023-10-08T04:48:59;10.83;;;3.50;;
13685;SDS011;6915;48.296;8.874;2023-10-08T04:51:31;11.03;;;3.40;;
13685;SDS011;6915;48.296;8.874;2023-10-08T04:54:08;12.97;;;3.30;;
13685;SDS011;6915;48.296;8.874;2023-10-08T04:56:40;11.40;;;3.20;;
13685;SDS011;6915;48.296;8.874;2023-10-08T04:59:07;7.57;;;3.07;;
13685;SDS011;6915;48.296;8.874;2023-10-08T05:01:36;9.50;;;3.33;;
13685;SDS011;6915;48.296;8.874;2023-10-08T05:04:12;10.73;;;3.63;;
13685;SDS011;6915;48.296;8.874;2023-10-08T05:06:53;9.73;;;3.57;;
13685;SDS011;6915;48.296;8.874;2023-10-08T05:09:37;7.20;;;3.10;;
13685;SDS011;6915;48.296;8.874;2023-10-08T05:12:17;8.00;;;3.27;;
13685;SDS011;6915;48.296;8.874;2023-10-08T05:14:58;9.93;;;3.33;;
13685;SDS011;6915;48.296;8.874;2023-10-08T05:17:39;13.23;;;3.07;;
13685;SDS011;6915;48.296;8.874;2023-10-08T05:20:22;9.00;;;2.80;;
13685;SDS011;6915;48.296;8.874;2023-10-08T05:23:07;12.53;;;3.03;;
13685;SDS011;6915;48.296;8.874;2023-10-08T05:25:57;13.37;;;2.80;;
13685;SDS011;6915;48.296;8.874;2023-10-08T05:28:34;12.33;;;3.23;;
13685;SDS011;6915;48.296;8.874;2023-10-08T05:31:12;9.70;;;3.10;;
13685;SDS011;6915;48.296;8.874;2023-10-08T05:34:01;10.40;;;3.23;;
13685;SDS011;6915;48.296;8.874;2023-10-08T05:36:43;10.87;;;3.20;;
13685;SDS011;6915;48.296;8.874;2023-10-08T05:39:34;13.20;;;3.33;;
13685;SDS011;6915;48.296;8.874;2023-10-08T05:42:07;12.50;;;3.00;;
13685;SDS011;6915;48.296;8.874;2023-10-08T05:44:38;14.87;;;3.33;;
13685;SDS011;6915;48.296;8.874;2023-10-08T05:47:10;6.93;;;2.93;;
13685;SDS011;6915;48.296;8.874;2023-10-08T05:50:03;13.33;;;2.90;;
13685;SDS011;6915;48.296;8.874;2023-10-08T05:52:49;7.33;;;2.73;;
13685;SDS011;6915;48.296;8.874;2023-10-08T05:55:31;9.60;;;2.97;;
13685;SDS011;6915;48.296;8.874;2023-10-08T05:58:08;13.40;;;3.20;;
13685;SDS011;6915;48.296;8.874;2023-10-08T06:00:50;12.97;;;4.03;;
13685;SDS011;6915;48.296;8.874;2023-10-08T06:03:34;14.40;;;3.23;;
13685;SDS011;6915;48.296;8.874;2023-10-08T06:06:25;10.80;;;3.70;;
13685;SDS011;6915;48.296;8.874;2023-10-08T06:09:12;13.50;;;3.73;;
13685;SDS011;6915;48.296;8.874;2023-10-08T06:12:01;13.50;;;3.60;;
13685;SDS011;6915;48.296;8.874;2023-10-08T06:14:36;9.43;;;3.40;;
13685;SDS011;6915;48.296;8.874;2023-10-08T06:17:18;9.30;;;3.37;;
13685;SDS011;6915;48.296;8.874;2023-10-08T06:20:00;10.37;;;3.23;;
13685;SDS011;6915;48.296;8.874;2023-10-08T06:22:35;10.57;;;3.80;;
13685;SDS011;6915;48.296;8.874;2023-10-08T06:25:01;10.23;;;3.70;;
13685;SDS011;6915;48.296;8.874;2023-10-08T06:27:50;11.37;;;4.00;;
13685;SDS011;6915;48.296;8.874;2023-10-08T06:30:20;14.13;;;4.67;;
13685;SDS011;6915;48.296;8.874;2023-10-08T06:32:48;17.00;;;5.67;;
13685;SDS011;6915;48.296;8.874;2023-10-08T06:35:19;11.40;;;5.27;;
13685;SDS011;6915;48.296;8.874;2023-10-08T06:37:50;15.23;;;6.90;;
13685;SDS011;6915;48.296;8.874;2023-10-08T06:40:20;20.20;;;7.17;;
13685;SDS011;6915;48.296;8.874;2023-10-08T06:43:06;19.33;;;7.67;;
13685;SDS011;6915;48.296;8.874;2023-10-08T06:45:47;18.30;;;7.27;;
13685;SDS011;6915;48.296;8.874;2023-10-08T06:48:17;13.83;;;6.83;;
13685;SDS011;6915;48.296;8.874;2023-10-08T06:50:45;12.13;;;5.87;;
13685;SDS011;6915;48.296;8.874;2023-10-08T06:53:13;14.20;;;5.90;;
13685;SDS011;6915;48.296;8.874;2023-10-08T06:55:43;10.67;;;4.33;;
13685;SDS011;6915;48.296;8.874;2023-10-08T06:58:14;12.30;;;4.03;;
13685;SDS011;6915;48.296;8.874;2023-10-08T07:00:43;15.43;;;4.50;;
13685;SDS011;6915;48.296;8.874;2023-10-08T07:03:13;7.33;;;3.50;;
13685;SDS011;6915;48.296;8.874;2023-10-08T07:05:43;9.27;;;4.07;;
13685;SDS011;6915;48.296;8.874;2023-10-08T07:08:19;13.27;;;6.00;;
13685;SDS011;6915;48.296;8.874;2023-10-08T07:10:48;14.13;;;6.40;;
13685;SDS011;6915;48.296;8.874;2023-10-08T07:13:17;12.73;;;4.70;;
13685;SDS011;6915;48.296;8.874;2023-10-08T07:15:47;11.30;;;4.13;;
13685;SDS011;6915;48.296;8.874;2023-10-08T07:18:14;12.50;;;4.50;;
13685;SDS011;6915;48.296;8.874;2023-10-08T07:20:49;14.07;;;4.03;;
13685;SDS011;6915;48.296;8.874;2023-10-08T07:23:19;13.27;;;4.47;;
13685;SDS011;6915;48.296;8.874;2023-10-08T07:25:52;12.47;;;4.80;;
13685;SDS011;6915;48.296;8.874;2023-10-08T07:28:26;14.43;;;4.73;;
13685;SDS011;6915;48.296;8.874;2023-10-08T07:30:55;14.53;;;4.60;;
13685;SDS011;6915;48.296;8.874;2023-10-08T07:33:23;10.13;;;4.23;;
13685;SDS011;6915;48.296;8.874;2023-10-08T07:36:01;13.97;;;4.23;;
13685;SDS011;6915;48.296;8.874;2023-10-08T07:38:43;13.07;;;4.07;;
13685;SDS011;6915;48.296;8.874;2023-10-08T07:43:59;13.90;;;3.90;;
13685;SDS011;6915;48.296;8.874;2023-10-08T07:46:26;8.33;;;3.87;;
13685;SDS011;6915;48.296;8.874;2023-10-08T07:48:53;11.07;;;4.00;;
13685;SDS011;6915;48.296;8.874;2023-10-08T07:51:23;13.80;;;4.10;;
13685;SDS011;6915;48.296;8.874;2023-10-08T07:53:50;12.10;;;4.10;;
13685;SDS011;6915;48.296;8.874;2023-10-08T07:56:19;16.00;;;4.17;;
13685;SDS011;6915;48.296;8.874;2023-10-08T07:58:46;10.47;;;3.90;;
13685;SDS011;6915;48.296;8.874;2023-10-08T08:01:15;14.13;;;4.47;;
13685;SDS011;6915;48.296;8.874;2023-10-08T08:03:51;16.00;;;4.40;;
13685;SDS011;6915;48.296;8.874;2023-10-08T08:06:23;14.27;;;3.90;;
13685;SDS011;6915;48.296;8.874;2023-10-08T08:08:50;15.57;;;4.07;;
13685;SDS011;6915;48.296;8.874;2023-10-08T08:11:20;12.20;;;3.90;;
13685;SDS011;6915;48.296;8.874;2023-10-08T08:14:02;11.53;;;3.63;;
13685;SDS011;6915;48.296;8.874;2023-10-08T08:16:34;12.10;;;3.77;;
13685;SDS011;6915;48.296;8.874;2023-10-08T08:19:03;12.93;;;3.77;;
13685;SDS011;6915;48.296;8.874;2023-10-08T08:21:30;10.20;;;3.40;;
13685;SDS011;6915;48.296;8.874;2023-10-08T08:23:57;7.32;;;2.50;;
13685;SDS011;6915;48.296;8.874;2023-10-08T08:26:30;7.47;;;2.42;;
13685;SDS011;6915;48.296;8.874;2023-10-08T08:29:04;4.60;;;2.45;;
13685;SDS011;6915;48.296;8.874;2023-10-08T08:31:35;10.70;;;2.80;;
13685;SDS011;6915;48.296;8.874;2023-10-08T08:34:02;6.57;;;2.35;;
13685;SDS011;6915;48.296;8.874;2023-10-08T08:36:35;9.35;;;2.67;;
13685;SDS011;6915;48.296;8.874;2023-10-08T08:39:04;10.73;;;2.90;;
13685;SDS011;6915;48.296;8.874;2023-10-08T08:41:36;7.22;;;2.75;;
13685;SDS011;6915;48.296;8.874;2023-10-08T08:44:03;10.20;;;2.95;;
13685;SDS011;6915;48.296;8.874;2023-10-08T08:46:32;12.05;;;2.85;;
13685;SDS011;6915;48.296;8.874;2023-10-08T08:49:04;10.50;;;3.10;;
13685;SDS011;6915;48.296;8.874;2023-10-08T08:51:33;10.60;;;3.35;;
13685;SDS011;6915;48.296;8.874;2023-10-08T08:54:01;10.63;;;2.70;;
13685;SDS011;6915;48.296;8.874;2023-10-08T08:56:31;10.00;;;3.00;;
13685;SDS011;6915;48.296;8.874;2023-10-08T08:58:59;6.20;;;2.70;;
13685;SDS011;6915;48.296;8.874;2023-10-08T09:01:36;9.68;;;2.55;;
13685;SDS011;6915;48.296;8.874;2023-10-08T09:04:06;8.30;;;3.00;;
13685;SDS011;6915;48.296;8.874;2023-10-08T09:06:33;10.25;;;2.92;;
13685;SDS011;6915;48.296;8.874;2023-10-08T09:09:02;8.50;;;3.13;;
13685;SDS011;6915;48.296;8.874;2023-10-08T09:11:46;14.50;;;3.40;;
13685;SDS011;6915;48.296;8.874;2023-10-08T09:14:16;10.80;;;2.97;;
13685;SDS011;6915;48.296;8.874;2023-10-08T09:16:45;9.27;;;3.25;;
13685;SDS011;6915;48.296;8.874;2023-10-08T09:19:15;10.15;;;3.45;;
13685;SDS011;6915;48.296;8.874;2023-10-08T09:22:01;8.82;;;3.67;;
13685;SDS011;6915;48.296;8.874;2023-10-08T09:24:30;11.68;;;3.97;;
13685;SDS011;6915;48.296;8.874;2023-10-08T09:26:58;9.02;;;3.92;;
13685;SDS011;6915;48.296;8.874;2023-10-08T09:29:27;11.52;;;4.47;;
13685;SDS011;6915;48.296;8.874;2023-10-08T09:31:55;17.13;;;4.13;;
13685;SDS011;6915;48.296;8.874;2023-10-08T09:34:27;11.00;;;4.15;;
13685;SDS011;6915;48.296;8.874;2023-10-08T09:36:55;12.27;;;3.70;;
13685;SDS011;6915;48.296;8.874;2023-10-08T09:39:25;13.27;;;4.20;;
13685;SDS011;6915;48.296;8.874;2023-10-08T09:41:54;14.55;;;3.70;;
13685;SDS011;6915;48.296;8.874;2023-10-08T09:44:22;13.02;;;3.85;;
13685;SDS011;6915;48.296;8.874;2023-10-08T09:46:52;12.13;;;3.75;;
13685;SDS011;6915;48.296;8.874;2023-10-08T09:49:23;12.00;;;3.75;;
13685;SDS011;6915;48.296;8.874;2023-10-08T09:51:57;11.27;;;4.20;;
13685;SDS011;6915;48.296;8.874;2023-10-08T09:54:28;9.80;;;3.25;;
13685;SDS011;6915;48.296;8.874;2023-10-08T09:56:58;12.75;;;4.07;;
13685;SDS011;6915;48.296;8.874;2023-10-08T09:59:26;13.65;;;3.90;;
13685;SDS011;6915;48.296;8.874;2023-10-08T10:01:54;14.10;;;3.67;;
13685;SDS011;6915;48.296;8.874;2023-10-08T10:04:24;13.98;;;3.83;;
13685;SDS011;6915;48.296;8.874;2023-10-08T10:06:55;11.18;;;3.50;;
13685;SDS011;6915;48.296;8.874;2023-10-08T10:09:24;13.15;;;3.65;;
13685;SDS011;6915;48.296;8.874;2023-10-08T10:11:52;7.18;;;3.70;;
13685;SDS011;6915;48.296;8.874;2023-10-08T10:14:22;9.63;;;3.97;;
13685;SDS011;6915;48.296;8.874;2023-10-08T10:17:08;12.82;;;4.20;;
13685;SDS011;6915;48.296;8.874;2023-10-08T10:19:39;11.45;;;4.40;;
13685;SDS011;6915;48.296;8.874;2023-10-08T10:22:12;14.25;;;4.07;;
13685;SDS011;6915;48.296;8.874;2023-10-08T10:24:41;14.10;;;4.32;;
13685;SDS011;6915;48.296;8.874;2023-10-08T10:27:11;13.18;;;4.20;;
13685;SDS011;6915;48.296;8.874;2023-10-08T10:29:39;11.25;;;3.90;;
13685;SDS011;6915;48.296;8.874;2023-10-08T10:32:09;10.82;;;4.10;;
13685;SDS011;6915;48.296;8.874;2023-10-08T10:34:38;12.05;;;4.20;;
13685;SDS011;6915;48.296;8.874;2023-10-08T10:37:06;12.10;;;3.97;;
13685;SDS011;6915;48.296;8.874;2023-10-08T10:39:56;16.80;;;4.57;;
13685;SDS011;6915;48.296;8.874;2023-10-08T10:42:27;15.63;;;4.28;;
13685;SDS011;6915;48.296;8.874;2023-10-08T10:44:55;11.90;;;4.30;;
13685;SDS011;6915;48.296;8.874;2023-10-08T10:47:24;18.05;;;4.25;;
13685;SDS011;6915;48.296;8.874;2023-10-08T11:05:24;10.18;;;4.15;;
13685;SDS011;6915;48.296;8.874;2023-10-08T11:07:53;14.32;;;4.32;;
13685;SDS011;6915;48.296;8.874;2023-10-08T11:10:25;14.57;;;4.30;;
13685;SDS011;6915;48.296;8.874;2023-10-08T11:12:53;13.68;;;4.15;;
13685;SDS011;6915;48.296;8.874;2023-10-08T11:15:24;16.15;;;4.13;;
